Kitzbuhel, Austria
Current Conditions -  °F | °C
As of 8:50 PM on Thursday 23 Oct 2014 (Local Time) from LOWS Reporting Station
Light Rain Light Rain  
Wind Chill: 41°   Ceiling: 1900
Heat Index: 45°   Visibility: 6mi
Dew Point: 39°   Wind: 7mph
Humidity: 81%   Direction: 260°W
Pressure: 30.21"   Gusts: NA
Location:  47.45°N, 12.39°E
Report Text: LOWS 231850Z 26006KT 200V300 9999 -RA FEW005 SCT015 BKN019 07/04 Q1023 NOSIG
Loading
Personal Weather Stations






























Interactive Weather Map
Tropical Storm Tracking
New forecast layout! Learn more

10-Day Weather Forecast

Advertisements
Track Severe Weather on mobile